sensor_id;sensor_type;location;lat;lon;timestamp;P1;durP1;ratioP1;P2;durP2;ratioP2
41921;SDS011;27609;51.002;5.354;2022-09-09T00:04:15;3.15;;;0.80;;
41921;SDS011;27609;51.002;5.354;2022-09-09T00:09:36;4.45;;;0.82;;
41921;SDS011;27609;51.002;5.354;2022-09-09T00:12:18;3.28;;;1.33;;
41921;SDS011;27609;51.002;5.354;2022-09-09T00:14:54;2.95;;;0.95;;
41921;SDS011;27609;51.002;5.354;2022-09-09T00:22:52;3.17;;;1.40;;
41921;SDS011;27609;51.002;5.354;2022-09-09T00:25:29;1.65;;;1.00;;
41921;SDS011;27609;51.002;5.354;2022-09-09T00:28:22;2.70;;;1.50;;
41921;SDS011;27609;51.002;5.354;2022-09-09T00:30:50;1.20;;;1.10;;
41921;SDS011;27609;51.002;5.354;2022-09-09T00:33:17;1.52;;;1.02;;
41921;SDS011;27609;51.002;5.354;2022-09-09T00:35:56;3.22;;;1.00;;
41921;SDS011;27609;51.002;5.354;2022-09-09T00:38:24;2.65;;;1.10;;
41921;SDS011;27609;51.002;5.354;2022-09-09T00:40:58;3.45;;;1.48;;
41921;SDS011;27609;51.002;5.354;2022-09-09T00:43:37;3.58;;;1.13;;
41921;SDS011;27609;51.002;5.354;2022-09-09T00:48:46;1.50;;;1.15;;
41921;SDS011;27609;51.002;5.354;2022-09-09T00:56:34;2.67;;;1.15;;
41921;SDS011;27609;51.002;5.354;2022-09-09T01:01:35;1.58;;;0.98;;
41921;SDS011;27609;51.002;5.354;2022-09-09T01:04:01;2.22;;;1.23;;
41921;SDS011;27609;51.002;5.354;2022-09-09T01:06:34;4.78;;;1.25;;
41921;SDS011;27609;51.002;5.354;2022-09-09T01:17:14;5.90;;;1.25;;
41921;SDS011;27609;51.002;5.354;2022-09-09T01:22:12;4.85;;;1.60;;
41921;SDS011;27609;51.002;5.354;2022-09-09T01:25:06;2.92;;;1.40;;
41921;SDS011;27609;51.002;5.354;2022-09-09T01:27:43;3.83;;;1.70;;
41921;SDS011;27609;51.002;5.354;2022-09-09T01:30:12;4.13;;;1.20;;
41921;SDS011;27609;51.002;5.354;2022-09-09T01:35:19;2.95;;;1.42;;
41921;SDS011;27609;51.002;5.354;2022-09-09T01:38:00;4.03;;;1.50;;
41921;SDS011;27609;51.002;5.354;2022-09-09T01:40:25;4.45;;;1.80;;
41921;SDS011;27609;51.002;5.354;2022-09-09T01:42:52;2.90;;;1.15;;
41921;SDS011;27609;51.002;5.354;2022-09-09T01:45:18;2.13;;;1.50;;
41921;SDS011;27609;51.002;5.354;2022-09-09T01:47:44;2.20;;;1.48;;
41921;SDS011;27609;51.002;5.354;2022-09-09T01:50:11;4.03;;;1.70;;
41921;SDS011;27609;51.002;5.354;2022-09-09T01:52:40;4.20;;;1.45;;
41921;SDS011;27609;51.002;5.354;2022-09-09T01:55:08;2.92;;;1.38;;
41921;SDS011;27609;51.002;5.354;2022-09-09T01:57:39;9.35;;;1.70;;
41921;SDS011;27609;51.002;5.354;2022-09-09T02:00:10;4.30;;;1.20;;
41921;SDS011;27609;51.002;5.354;2022-09-09T02:02:48;3.50;;;1.23;;
41921;SDS011;27609;51.002;5.354;2022-09-09T02:07:59;5.68;;;1.60;;
41921;SDS011;27609;51.002;5.354;2022-09-09T02:10:31;6.03;;;1.70;;
41921;SDS011;27609;51.002;5.354;2022-09-09T02:13:17;4.82;;;1.33;;
41921;SDS011;27609;51.002;5.354;2022-09-09T02:15:53;3.50;;;1.85;;
41921;SDS011;27609;51.002;5.354;2022-09-09T02:18:30;3.25;;;1.35;;
41921;SDS011;27609;51.002;5.354;2022-09-09T02:21:02;9.25;;;1.90;;
41921;SDS011;27609;51.002;5.354;2022-09-09T02:23:29;5.22;;;1.30;;
41921;SDS011;27609;51.002;5.354;2022-09-09T02:25:57;8.38;;;1.95;;
41921;SDS011;27609;51.002;5.354;2022-09-09T02:28:24;2.92;;;1.27;;
41921;SDS011;27609;51.002;5.354;2022-09-09T02:30:53;6.43;;;1.88;;
41921;SDS011;27609;51.002;5.354;2022-09-09T02:33:21;6.63;;;1.80;;
41921;SDS011;27609;51.002;5.354;2022-09-09T02:35:49;5.77;;;2.20;;
41921;SDS011;27609;51.002;5.354;2022-09-09T02:38:17;3.55;;;1.70;;
41921;SDS011;27609;51.002;5.354;2022-09-09T02:40:45;9.60;;;1.63;;
41921;SDS011;27609;51.002;5.354;2022-09-09T02:43:11;3.55;;;1.80;;
41921;SDS011;27609;51.002;5.354;2022-09-09T02:45:42;3.40;;;1.77;;
41921;SDS011;27609;51.002;5.354;2022-09-09T02:48:24;3.17;;;1.73;;
41921;SDS011;27609;51.002;5.354;2022-09-09T02:53:47;12.48;;;2.30;;
41921;SDS011;27609;51.002;5.354;2022-09-09T02:56:21;5.47;;;1.85;;
41921;SDS011;27609;51.002;5.354;2022-09-09T02:58:50;4.65;;;1.58;;
41921;SDS011;27609;51.002;5.354;2022-09-09T03:01:16;4.60;;;1.73;;
41921;SDS011;27609;51.002;5.354;2022-09-09T03:03:43;5.38;;;1.90;;
41921;SDS011;27609;51.002;5.354;2022-09-09T03:06:09;4.43;;;2.17;;
41921;SDS011;27609;51.002;5.354;2022-09-09T03:08:36;5.50;;;1.70;;
41921;SDS011;27609;51.002;5.354;2022-09-09T03:11:02;8.98;;;2.13;;
41921;SDS011;27609;51.002;5.354;2022-09-09T03:13:28;6.40;;;2.05;;
41921;SDS011;27609;51.002;5.354;2022-09-09T03:15:54;6.25;;;2.10;;
41921;SDS011;27609;51.002;5.354;2022-09-09T03:18:20;7.55;;;2.20;;
41921;SDS011;27609;51.002;5.354;2022-09-09T03:20:46;5.93;;;1.92;;
41921;SDS011;27609;51.002;5.354;2022-09-09T03:23:15;7.72;;;1.42;;
41921;SDS011;27609;51.002;5.354;2022-09-09T03:25:48;7.18;;;2.50;;
41921;SDS011;27609;51.002;5.354;2022-09-09T03:28:14;10.35;;;2.20;;
41921;SDS011;27609;51.002;5.354;2022-09-09T03:30:40;5.13;;;1.52;;
41921;SDS011;27609;51.002;5.354;2022-09-09T03:33:06;8.85;;;1.80;;
41921;SDS011;27609;51.002;5.354;2022-09-09T03:35:33;5.28;;;1.85;;
41921;SDS011;27609;51.002;5.354;2022-09-09T03:37:59;8.27;;;1.95;;
41921;SDS011;27609;51.002;5.354;2022-09-09T03:40:25;9.90;;;2.38;;
41921;SDS011;27609;51.002;5.354;2022-09-09T03:42:51;3.03;;;1.42;;
41921;SDS011;27609;51.002;5.354;2022-09-09T03:45:17;7.82;;;1.90;;
41921;SDS011;27609;51.002;5.354;2022-09-09T03:47:45;4.93;;;1.90;;
41921;SDS011;27609;51.002;5.354;2022-09-09T03:50:11;7.63;;;1.95;;
41921;SDS011;27609;51.002;5.354;2022-09-09T03:52:37;9.52;;;1.85;;
41921;SDS011;27609;51.002;5.354;2022-09-09T03:55:05;6.70;;;2.70;;
41921;SDS011;27609;51.002;5.354;2022-09-09T03:57:32;5.30;;;1.70;;
41921;SDS011;27609;51.002;5.354;2022-09-09T04:00:00;5.82;;;1.52;;
41921;SDS011;27609;51.002;5.354;2022-09-09T04:02:31;4.72;;;1.40;;
41921;SDS011;27609;51.002;5.354;2022-09-09T04:04:56;3.70;;;1.65;;
41921;SDS011;27609;51.002;5.354;2022-09-09T04:07:22;7.35;;;1.50;;
41921;SDS011;27609;51.002;5.354;2022-09-09T04:09:48;7.88;;;1.65;;
41921;SDS011;27609;51.002;5.354;2022-09-09T04:12:13;4.82;;;1.27;;
41921;SDS011;27609;51.002;5.354;2022-09-09T04:14:39;9.25;;;1.75;;
41921;SDS011;27609;51.002;5.354;2022-09-09T04:17:04;7.60;;;1.45;;
41921;SDS011;27609;51.002;5.354;2022-09-09T04:19:31;8.43;;;1.60;;
41921;SDS011;27609;51.002;5.354;2022-09-09T04:21:57;11.75;;;2.15;;
41921;SDS011;27609;51.002;5.354;2022-09-09T04:24:23;11.45;;;1.73;;
41921;SDS011;27609;51.002;5.354;2022-09-09T04:26:50;5.95;;;1.45;;
41921;SDS011;27609;51.002;5.354;2022-09-09T04:29:16;14.82;;;2.78;;
41921;SDS011;27609;51.002;5.354;2022-09-09T04:31:44;4.22;;;2.00;;
41921;SDS011;27609;51.002;5.354;2022-09-09T04:34:09;4.65;;;1.52;;
41921;SDS011;27609;51.002;5.354;2022-09-09T04:36:35;10.68;;;2.53;;
41921;SDS011;27609;51.002;5.354;2022-09-09T04:39:01;5.82;;;1.80;;
41921;SDS011;27609;51.002;5.354;2022-09-09T04:41:27;3.97;;;1.50;;
41921;SDS011;27609;51.002;5.354;2022-09-09T04:43:53;8.85;;;2.00;;
41921;SDS011;27609;51.002;5.354;2022-09-09T04:46:20;9.05;;;2.42;;
41921;SDS011;27609;51.002;5.354;2022-09-09T04:48:48;5.55;;;2.10;;
41921;SDS011;27609;51.002;5.354;2022-09-09T04:51:14;6.13;;;1.45;;
41921;SDS011;27609;51.002;5.354;2022-09-09T04:53:40;7.25;;;1.88;;
41921;SDS011;27609;51.002;5.354;2022-09-09T04:56:10;10.13;;;2.17;;
41921;SDS011;27609;51.002;5.354;2022-09-09T04:58:38;5.75;;;2.10;;
41921;SDS011;27609;51.002;5.354;2022-09-09T05:03:31;9.95;;;2.42;;
41921;SDS011;27609;51.002;5.354;2022-09-09T05:06:07;7.63;;;1.60;;
41921;SDS011;27609;51.002;5.354;2022-09-09T05:08:35;7.50;;;1.67;;
41921;SDS011;27609;51.002;5.354;2022-09-09T05:13:44;4.95;;;1.55;;
41921;SDS011;27609;51.002;5.354;2022-09-09T05:16:13;11.55;;;2.28;;
41921;SDS011;27609;51.002;5.354;2022-09-09T05:18:39;14.73;;;2.20;;
41921;SDS011;27609;51.002;5.354;2022-09-09T05:21:06;5.82;;;1.70;;
41921;SDS011;27609;51.002;5.354;2022-09-09T05:23:32;11.18;;;3.13;;
41921;SDS011;27609;51.002;5.354;2022-09-09T05:25:59;8.13;;;1.95;;
41921;SDS011;27609;51.002;5.354;2022-09-09T05:28:25;7.40;;;2.17;;
41921;SDS011;27609;51.002;5.354;2022-09-09T05:30:55;12.13;;;2.40;;
41921;SDS011;27609;51.002;5.354;2022-09-09T05:33:22;9.02;;;2.30;;
41921;SDS011;27609;51.002;5.354;2022-09-09T05:35:54;6.45;;;2.38;;
41921;SDS011;27609;51.002;5.354;2022-09-09T05:38:23;10.35;;;2.00;;
41921;SDS011;27609;51.002;5.354;2022-09-09T05:40:52;10.65;;;1.92;;
41921;SDS011;27609;51.002;5.354;2022-09-09T05:43:18;11.07;;;2.67;;
41921;SDS011;27609;51.002;5.354;2022-09-09T05:45:45;8.38;;;1.80;;
41921;SDS011;27609;51.002;5.354;2022-09-09T05:48:12;7.93;;;1.80;;
41921;SDS011;27609;51.002;5.354;2022-09-09T05:50:54;14.77;;;2.28;;
41921;SDS011;27609;51.002;5.354;2022-09-09T05:53:20;9.10;;;2.00;;
41921;SDS011;27609;51.002;5.354;2022-09-09T05:55:45;8.10;;;1.80;;
41921;SDS011;27609;51.002;5.354;2022-09-09T05:58:12;7.80;;;1.75;;
41921;SDS011;27609;51.002;5.354;2022-09-09T06:00:42;7.78;;;2.28;;
41921;SDS011;27609;51.002;5.354;2022-09-09T06:03:10;5.28;;;1.45;;
41921;SDS011;27609;51.002;5.354;2022-09-09T06:05:36;8.05;;;2.20;;
41921;SDS011;27609;51.002;5.354;2022-09-09T06:08:02;7.70;;;1.65;;
41921;SDS011;27609;51.002;5.354;2022-09-09T06:10:28;9.38;;;1.95;;
41921;SDS011;27609;51.002;5.354;2022-09-09T06:12:54;9.30;;;2.05;;
41921;SDS011;27609;51.002;5.354;2022-09-09T06:15:19;8.50;;;2.42;;
41921;SDS011;27609;51.002;5.354;2022-09-09T06:17:45;12.98;;;2.30;;
41921;SDS011;27609;51.002;5.354;2022-09-09T06:20:11;10.75;;;2.15;;
41921;SDS011;27609;51.002;5.354;2022-09-09T06:22:41;9.25;;;1.67;;
41921;SDS011;27609;51.002;5.354;2022-09-09T06:27:37;7.95;;;2.20;;
41921;SDS011;27609;51.002;5.354;2022-09-09T06:30:03;8.25;;;2.72;;
41921;SDS011;27609;51.002;5.354;2022-09-09T06:32:31;6.70;;;1.90;;
41921;SDS011;27609;51.002;5.354;2022-09-09T06:34:59;3.95;;;1.30;;
41921;SDS011;27609;51.002;5.354;2022-09-09T06:37:26;16.48;;;2.53;;
41921;SDS011;27609;51.002;5.354;2022-09-09T06:39:52;9.07;;;1.60;;
41921;SDS011;27609;51.002;5.354;2022-09-09T06:42:19;12.10;;;1.90;;
41921;SDS011;27609;51.002;5.354;2022-09-09T06:44:45;8.07;;;2.45;;
41921;SDS011;27609;51.002;5.354;2022-09-09T06:47:10;7.18;;;1.70;;
41921;SDS011;27609;51.002;5.354;2022-09-09T06:49:36;8.63;;;1.77;;
41921;SDS011;27609;51.002;5.354;2022-09-09T06:52:02;7.82;;;1.90;;
41921;SDS011;27609;51.002;5.354;2022-09-09T06:54:27;14.27;;;2.35;;
41921;SDS011;27609;51.002;5.354;2022-09-09T06:56:55;4.40;;;1.38;;
41921;SDS011;27609;51.002;5.354;2022-09-09T06:59:25;13.85;;;1.70;;
41921;SDS011;27609;51.002;5.354;2022-09-09T07:01:53;7.90;;;1.55;;
41921;SDS011;27609;51.002;5.354;2022-09-09T07:04:19;8.70;;;1.67;;
41921;SDS011;27609;51.002;5.354;2022-09-09T07:06:48;8.68;;;1.52;;
41921;SDS011;27609;51.002;5.354;2022-09-09T07:09:14;8.55;;;1.90;;
41921;SDS011;27609;51.002;5.354;2022-09-09T07:11:44;12.07;;;1.83;;
41921;SDS011;27609;51.002;5.354;2022-09-09T07:14:13;8.40;;;1.63;;
41921;SDS011;27609;51.002;5.354;2022-09-09T07:16:42;7.97;;;1.65;;
41921;SDS011;27609;51.002;5.354;2022-09-09T07:19:10;6.57;;;1.65;;
41921;SDS011;27609;51.002;5.354;2022-09-09T07:21:39;7.70;;;2.03;;
41921;SDS011;27609;51.002;5.354;2022-09-09T07:24:07;8.60;;;2.08;;
41921;SDS011;27609;51.002;5.354;2022-09-09T07:26:35;9.98;;;1.85;;
41921;SDS011;27609;51.002;5.354;2022-09-09T07:29:01;15.35;;;1.88;;
41921;SDS011;27609;51.002;5.354;2022-09-09T07:31:28;8.65;;;1.73;;
41921;SDS011;27609;51.002;5.354;2022-09-09T07:33:56;8.70;;;1.65;;
41921;SDS011;27609;51.002;5.354;2022-09-09T07:36:24;12.98;;;2.28;;
41921;SDS011;27609;51.002;5.354;2022-09-09T07:39:03;8.55;;;3.38;;
41921;SDS011;27609;51.002;5.354;2022-09-09T07:41:32;13.43;;;1.63;;
41921;SDS011;27609;51.002;5.354;2022-09-09T07:44:03;10.68;;;2.20;;
41921;SDS011;27609;51.002;5.354;2022-09-09T07:48:56;7.90;;;1.48;;
41921;SDS011;27609;51.002;5.354;2022-09-09T07:51:45;4.40;;;1.45;;
41921;SDS011;27609;51.002;5.354;2022-09-09T07:54:11;5.32;;;1.27;;
41921;SDS011;27609;51.002;5.354;2022-09-09T07:56:43;7.35;;;1.58;;
41921;SDS011;27609;51.002;5.354;2022-09-09T07:59:11;7.03;;;1.42;;
41921;SDS011;27609;51.002;5.354;2022-09-09T08:01:41;10.13;;;1.77;;
41921;SDS011;27609;51.002;5.354;2022-09-09T08:04:12;10.82;;;1.77;;
41921;SDS011;27609;51.002;5.354;2022-09-09T08:06:41;9.38;;;1.85;;
41921;SDS011;27609;51.002;5.354;2022-09-09T08:09:20;6.97;;;1.25;;
41921;SDS011;27609;51.002;5.354;2022-09-09T08:11:50;6.93;;;1.27;;
41921;SDS011;27609;51.002;5.354;2022-09-09T08:14:16;7.40;;;1.67;;
41921;SDS011;27609;51.002;5.354;2022-09-09T08:16:43;8.73;;;2.47;;
41921;SDS011;27609;51.002;5.354;2022-09-09T08:19:10;5.72;;;1.05;;
41921;SDS011;27609;51.002;5.354;2022-09-09T08:21:40;10.20;;;1.88;;
41921;SDS011;27609;51.002;5.354;2022-09-09T08:24:07;9.60;;;1.85;;
41921;SDS011;27609;51.002;5.354;2022-09-09T08:26:42;5.93;;;1.00;;
41921;SDS011;27609;51.002;5.354;2022-09-09T08:29:10;4.68;;;1.65;;
41921;SDS011;27609;51.002;5.354;2022-09-09T08:31:40;6.88;;;1.67;;
41921;SDS011;27609;51.002;5.354;2022-09-09T08:34:08;5.10;;;1.97;;
41921;SDS011;27609;51.002;5.354;2022-09-09T08:36:35;6.32;;;2.38;;
41921;SDS011;27609;51.002;5.354;2022-09-09T08:39:04;9.93;;;1.80;;
41921;SDS011;27609;51.002;5.354;2022-09-09T08:44:10;5.47;;;2.00;;
41921;SDS011;27609;51.002;5.354;2022-09-09T08:52:51;11.77;;;1.58;;
41921;SDS011;27609;51.002;5.354;2022-09-09T08:57:52;10.63;;;1.60;;
41921;SDS011;27609;51.002;5.354;2022-09-09T09:00:21;5.25;;;1.80;;
41921;SDS011;27609;51.002;5.354;2022-09-09T09:03:04;7.68;;;2.33;;
41921;SDS011;27609;51.002;5.354;2022-09-09T09:05:47;13.48;;;2.22;;
41921;SDS011;27609;51.002;5.354;2022-09-09T09:10:50;6.53;;;1.92;;
41921;SDS011;27609;51.002;5.354;2022-09-09T09:14:03;8.77;;;2.47;;
41921;SDS011;27609;51.002;5.354;2022-09-09T09:16:38;6.70;;;1.83;;
41921;SDS011;27609;51.002;5.354;2022-09-09T09:19:12;6.38;;;1.95;;
41921;SDS011;27609;51.002;5.354;2022-09-09T09:21:43;5.47;;;1.73;;
41921;SDS011;27609;51.002;5.354;2022-09-09T09:24:24;30.48;;;2.83;;
41921;SDS011;27609;51.002;5.354;2022-09-09T09:26:57;6.63;;;1.83;;
41921;SDS011;27609;51.002;5.354;2022-09-09T09:29:36;4.97;;;1.13;;
41921;SDS011;27609;51.002;5.354;2022-09-09T09:32:05;5.32;;;1.75;;
41921;SDS011;27609;51.002;5.354;2022-09-09T09:34:38;2.03;;;0.80;;
41921;SDS011;27609;51.002;5.354;2022-09-09T09:37:12;4.90;;;1.17;;
41921;SDS011;27609;51.002;5.354;2022-09-09T09:39:45;7.72;;;1.45;;
41921;SDS011;27609;51.002;5.354;2022-09-09T09:42:15;9.45;;;2.22;;
41921;SDS011;27609;51.002;5.354;2022-09-09T09:44:42;9.27;;;1.83;;
41921;SDS011;27609;51.002;5.354;2022-09-09T09:47:11;5.30;;;1.55;;
41921;SDS011;27609;51.002;5.354;2022-09-09T09:49:51;7.70;;;1.17;;
41921;SDS011;27609;51.002;5.354;2022-09-09T09:52:25;7.25;;;1.15;;
41921;SDS011;27609;51.002;5.354;2022-09-09T09:54:53;7.57;;;1.77;;
41921;SDS011;27609;51.002;5.354;2022-09-09T09:57:27;2.45;;;0.85;;
41921;SDS011;27609;51.002;5.354;2022-09-09T10:00:03;4.10;;;0.90;;
41921;SDS011;27609;51.002;5.354;2022-09-09T10:02:43;5.45;;;1.50;;
41921;SDS011;27609;51.002;5.354;2022-09-09T10:05:14;2.03;;;1.17;;
41921;SDS011;27609;51.002;5.354;2022-09-09T10:07:45;8.32;;;1.90;;
41921;SDS011;27609;51.002;5.354;2022-09-09T10:10:26;6.78;;;2.05;;
41921;SDS011;27609;51.002;5.354;2022-09-09T10:13:05;10.32;;;1.98;;
41921;SDS011;27609;51.002;5.354;2022-09-09T10:15:45;6.63;;;2.35;;
41921;SDS011;27609;51.002;5.354;2022-09-09T10:42:51;8.75;;;2.55;;
41921;SDS011;27609;51.002;5.354;2022-09-09T10:45:25;9.13;;;2.35;;
41921;SDS011;27609;51.002;5.354;2022-09-09T10:50:50;6.40;;;2.75;;
41921;SDS011;27609;51.002;5.354;2022-09-09T10:53:42;7.75;;;2.47;;
41921;SDS011;27609;51.002;5.354;2022-09-09T10:56:28;7.05;;;2.63;;
41921;SDS011;27609;51.002;5.354;2022-09-09T10:59:14;11.10;;;3.33;;
41921;SDS011;27609;51.002;5.354;2022-09-09T11:01:53;8.05;;;2.72;;
41921;SDS011;27609;51.002;5.354;2022-09-09T11:04:30;8.07;;;3.17;;
41921;SDS011;27609;51.002;5.354;2022-09-09T11:07:00;8.55;;;3.22;;
41921;SDS011;27609;51.002;5.354;2022-09-09T11:09:33;14.02;;;2.85;;
41921;SDS011;27609;51.002;5.354;2022-09-09T11:12:04;7.40;;;3.65;;
41921;SDS011;27609;51.002;5.354;2022-09-09T11:14:41;4.70;;;2.38;;
41921;SDS011;27609;51.002;5.354;2022-09-09T11:19:44;8.50;;;2.72;;
41921;SDS011;27609;51.002;5.354;2022-09-09T11:24:59;11.75;;;3.70;;
41921;SDS011;27609;51.002;5.354;2022-09-09T11:44:40;9.52;;;2.80;;
41921;SDS011;27609;51.002;5.354;2022-09-09T11:47:20;11.15;;;2.10;;
41921;SDS011;27609;51.002;5.354;2022-09-09T11:49:55;6.40;;;2.97;;
41921;SDS011;27609;51.002;5.354;2022-09-09T11:52:45;7.72;;;2.22;;
41921;SDS011;27609;51.002;5.354;2022-09-09T11:55:26;6.40;;;2.70;;
41921;SDS011;27609;51.002;5.354;2022-09-09T11:58:02;5.13;;;2.38;;
41921;SDS011;27609;51.002;5.354;2022-09-09T12:00:35;6.05;;;2.17;;
41921;SDS011;27609;51.002;5.354;2022-09-09T12:03:31;7.38;;;2.63;;
41921;SDS011;27609;51.002;5.354;2022-09-09T12:06:13;9.07;;;2.30;;
41921;SDS011;27609;51.002;5.354;2022-09-09T12:08:58;9.48;;;2.85;;
41921;SDS011;27609;51.002;5.354;2022-09-09T12:11:35;10.63;;;2.47;;
41921;SDS011;27609;51.002;5.354;2022-09-09T12:14:02;10.18;;;2.30;;
41921;SDS011;27609;51.002;5.354;2022-09-09T12:16:29;5.82;;;2.42;;
41921;SDS011;27609;51.002;5.354;2022-09-09T12:21:41;6.40;;;2.13;;
41921;SDS011;27609;51.002;5.354;2022-09-09T12:24:34;7.28;;;1.90;;
41921;SDS011;27609;51.002;5.354;2022-09-09T12:27:21;6.22;;;2.00;;
41921;SDS011;27609;51.002;5.354;2022-09-09T12:30:14;9.57;;;1.58;;
41921;SDS011;27609;51.002;5.354;2022-09-09T12:32:41;6.13;;;2.15;;
41921;SDS011;27609;51.002;5.354;2022-09-09T12:35:11;5.78;;;1.50;;
41921;SDS011;27609;51.002;5.354;2022-09-09T12:37:52;6.68;;;1.35;;
41921;SDS011;27609;51.002;5.354;2022-09-09T12:42:49;5.78;;;1.92;;
41921;SDS011;27609;51.002;5.354;2022-09-09T12:45:19;3.65;;;1.17;;
41921;SDS011;27609;51.002;5.354;2022-09-09T12:50:22;5.93;;;1.38;;
41921;SDS011;27609;51.002;5.354;2022-09-09T12:52:54;2.83;;;1.27;;
41921;SDS011;27609;51.002;5.354;2022-09-09T12:55:32;3.30;;;1.33;;
41921;SDS011;27609;51.002;5.354;2022-09-09T12:58:02;6.13;;;2.00;;
41921;SDS011;27609;51.002;5.354;2022-09-09T13:00:30;4.43;;;1.33;;
41921;SDS011;27609;51.002;5.354;2022-09-09T13:02:57;4.30;;;1.60;;
41921;SDS011;27609;51.002;5.354;2022-09-09T13:07:51;7.15;;;2.22;;
41921;SDS011;27609;51.002;5.354;2022-09-09T13:10:27;7.72;;;1.50;;
41921;SDS011;27609;51.002;5.354;2022-09-09T13:12:55;4.38;;;1.20;;
41921;SDS011;27609;51.002;5.354;2022-09-09T13:15:22;5.60;;;1.27;;
41921;SDS011;27609;51.002;5.354;2022-09-09T13:17:54;3.80;;;1.25;;
41921;SDS011;27609;51.002;5.354;2022-09-09T13:20:26;6.30;;;1.88;;
41921;SDS011;27609;51.002;5.354;2022-09-09T13:22:53;6.82;;;1.63;;
41921;SDS011;27609;51.002;5.354;2022-09-09T13:25:24;4.45;;;1.35;;
41921;SDS011;27609;51.002;5.354;2022-09-09T13:33:05;4.07;;;1.15;;
41921;SDS011;27609;51.002;5.354;2022-09-09T13:35:34;6.30;;;1.25;;
41921;SDS011;27609;51.002;5.354;2022-09-09T13:38:12;3.40;;;1.00;;
41921;SDS011;27609;51.002;5.354;2022-09-09T13:40:39;2.45;;;1.00;;
41921;SDS011;27609;51.002;5.354;2022-09-09T13:43:05;3.28;;;1.40;;
41921;SDS011;27609;51.002;5.354;2022-09-09T13:45:51;5.68;;;1.25;;
41921;SDS011;27609;51.002;5.354;2022-09-09T13:48:18;6.43;;;1.23;;
41921;SDS011;27609;51.002;5.354;2022-09-09T13:50:53;3.08;;;1.15;;
41921;SDS011;27609;51.002;5.354;2022-09-09T13:53:31;3.45;;;1.20;;
41921;SDS011;27609;51.002;5.354;2022-09-09T13:55:58;4.35;;;1.40;;
41921;SDS011;27609;51.002;5.354;2022-09-09T13:58:24;2.17;;;1.20;;
41921;SDS011;27609;51.002;5.354;2022-09-09T14:00:51;9.60;;;1.50;;
41921;SDS011;27609;51.002;5.354;2022-09-09T14:03:18;4.05;;;1.42;;
41921;SDS011;27609;51.002;5.354;2022-09-09T14:05:44;4.95;;;1.20;;
41921;SDS011;27609;51.002;5.354;2022-09-09T14:08:14;4.72;;;1.65;;
41921;SDS011;27609;51.002;5.354;2022-09-09T14:10:50;4.05;;;1.20;;
41921;SDS011;27609;51.002;5.354;2022-09-09T14:13:17;4.78;;;1.13;;
41921;SDS011;27609;51.002;5.354;2022-09-09T14:15:43;3.15;;;0.68;;
41921;SDS011;27609;51.002;5.354;2022-09-09T14:18:11;4.32;;;0.85;;
41921;SDS011;27609;51.002;5.354;2022-09-09T14:20:38;3.22;;;1.17;;
41921;SDS011;27609;51.002;5.354;2022-09-09T14:23:03;5.40;;;1.90;;
41921;SDS011;27609;51.002;5.354;2022-09-09T14:25:29;5.28;;;1.23;;
41921;SDS011;27609;51.002;5.354;2022-09-09T14:27:56;3.83;;;1.45;;
41921;SDS011;27609;51.002;5.354;2022-09-09T14:30:21;5.47;;;1.10;;
41921;SDS011;27609;51.002;5.354;2022-09-09T14:32:47;7.60;;;1.92;;
41921;SDS011;27609;51.002;5.354;2022-09-09T14:35:13;4.68;;;1.00;;
41921;SDS011;27609;51.002;5.354;2022-09-09T14:37:38;6.18;;;1.50;;
41921;SDS011;27609;51.002;5.354;2022-09-09T14:40:04;3.83;;;0.95;;
41921;SDS011;27609;51.002;5.354;2022-09-09T14:42:30;9.45;;;1.65;;
41921;SDS011;27609;51.002;5.354;2022-09-09T14:44:56;2.13;;;0.80;;
41921;SDS011;27609;51.002;5.354;2022-09-09T14:47:21;3.17;;;1.10;;
41921;SDS011;27609;51.002;5.354;2022-09-09T14:49:47;4.60;;;0.80;;
41921;SDS011;27609;51.002;5.354;2022-09-09T14:52:14;2.90;;;1.10;;
41921;SDS011;27609;51.002;5.354;2022-09-09T14:54:41;4.63;;;0.98;;
41921;SDS011;27609;51.002;5.354;2022-09-09T14:57:07;3.05;;;1.13;;
41921;SDS011;27609;51.002;5.354;2022-09-09T14:59:32;4.43;;;0.90;;
41921;SDS011;27609;51.002;5.354;2022-09-09T15:01:59;4.05;;;1.48;;
41921;SDS011;27609;51.002;5.354;2022-09-09T15:04:28;3.90;;;1.00;;
41921;SDS011;27609;51.002;5.354;2022-09-09T15:06:54;2.17;;;0.80;;
41921;SDS011;27609;51.002;5.354;2022-09-09T15:09:20;3.35;;;0.85;;
41921;SDS011;27609;51.002;5.354;2022-09-09T15:11:45;3.83;;;1.65;;
41921;SDS011;27609;51.002;5.354;2022-09-09T15:14:11;3.20;;;1.05;;
41921;SDS011;27609;51.002;5.354;2022-09-09T15:16:38;2.60;;;0.98;;
41921;SDS011;27609;51.002;5.354;2022-09-09T15:19:04;7.85;;;1.05;;
41921;SDS011;27609;51.002;5.354;2022-09-09T15:21:31;2.97;;;1.00;;
41921;SDS011;27609;51.002;5.354;2022-09-09T15:23:58;3.58;;;1.00;;
41921;SDS011;27609;51.002;5.354;2022-09-09T15:26:24;2.95;;;0.98;;
41921;SDS011;27609;51.002;5.354;2022-09-09T15:28:51;3.13;;;1.35;;
41921;SDS011;27609;51.002;5.354;2022-09-09T15:33:50;4.63;;;1.20;;
41921;SDS011;27609;51.002;5.354;2022-09-09T15:36:18;4.95;;;1.10;;
41921;SDS011;27609;51.002;5.354;2022-09-09T15:38:48;2.40;;;1.00;;
41921;SDS011;27609;51.002;5.354;2022-09-09T15:41:14;2.17;;;1.25;;
41921;SDS011;27609;51.002;5.354;2022-09-09T15:43:47;2.63;;;0.80;;
41921;SDS011;27609;51.002;5.354;2022-09-09T15:48:42;7.20;;;1.15;;
41921;SDS011;27609;51.002;5.354;2022-09-09T15:51:13;4.35;;;1.10;;
41921;SDS011;27609;51.002;5.354;2022-09-09T15:53:39;6.43;;;2.03;;
41921;SDS011;27609;51.002;5.354;2022-09-09T15:56:08;1.08;;;0.63;;
41921;SDS011;27609;51.002;5.354;2022-09-09T15:58:34;2.92;;;1.05;;
41921;SDS011;27609;51.002;5.354;2022-09-09T16:01:04;4.65;;;1.10;;
41921;SDS011;27609;51.002;5.354;2022-09-09T16:03:35;5.07;;;2.00;;
41921;SDS011;27609;51.002;5.354;2022-09-09T16:06:02;3.40;;;1.00;;
41921;SDS011;27609;51.002;5.354;2022-09-09T16:08:36;2.15;;;0.75;;
41921;SDS011;27609;51.002;5.354;2022-09-09T16:11:11;4.78;;;1.00;;
41921;SDS011;27609;51.002;5.354;2022-09-09T16:13:42;2.60;;;0.80;;
41921;SDS011;27609;51.002;5.354;2022-09-09T16:16:12;3.10;;;1.13;;
41921;SDS011;27609;51.002;5.354;2022-09-09T16:18:40;3.03;;;1.00;;
41921;SDS011;27609;51.002;5.354;2022-09-09T16:21:08;3.90;;;1.10;;
41921;SDS011;27609;51.002;5.354;2022-09-09T16:23:37;3.28;;;1.27;;
41921;SDS011;27609;51.002;5.354;2022-09-09T16:26:04;4.70;;;1.33;;
41921;SDS011;27609;51.002;5.354;2022-09-09T16:28:30;3.20;;;1.00;;
41921;SDS011;27609;51.002;5.354;2022-09-09T16:30:56;4.68;;;1.15;;
41921;SDS011;27609;51.002;5.354;2022-09-09T16:33:23;5.60;;;1.10;;
41921;SDS011;27609;51.002;5.354;2022-09-09T16:35:51;4.22;;;1.13;;
41921;SDS011;27609;51.002;5.354;2022-09-09T16:38:16;4.32;;;1.38;;
41921;SDS011;27609;51.002;5.354;2022-09-09T16:40:42;4.38;;;1.00;;
41921;SDS011;27609;51.002;5.354;2022-09-09T16:43:08;3.28;;;1.13;;
41921;SDS011;27609;51.002;5.354;2022-09-09T16:45:43;5.05;;;1.85;;
41921;SDS011;27609;51.002;5.354;2022-09-09T16:48:10;9.00;;;1.17;;
41921;SDS011;27609;51.002;5.354;2022-09-09T16:50:36;2.40;;;0.75;;
41921;SDS011;27609;51.002;5.354;2022-09-09T16:53:04;7.10;;;1.20;;
41921;SDS011;27609;51.002;5.354;2022-09-09T16:55:37;4.65;;;1.23;;
41921;SDS011;27609;51.002;5.354;2022-09-09T16:58:06;4.75;;;1.00;;
41921;SDS011;27609;51.002;5.354;2022-09-09T17:00:33;3.08;;;0.70;;
41921;SDS011;27609;51.002;5.354;2022-09-09T17:02:59;5.70;;;0.98;;
41921;SDS011;27609;51.002;5.354;2022-09-09T17:05:25;8.77;;;1.60;;
41921;SDS011;27609;51.002;5.354;2022-09-09T17:07:51;6.72;;;1.40;;
41921;SDS011;27609;51.002;5.354;2022-09-09T17:10:16;6.55;;;1.15;;
41921;SDS011;27609;51.002;5.354;2022-09-09T17:12:42;3.22;;;1.00;;
41921;SDS011;27609;51.002;5.354;2022-09-09T17:15:08;7.07;;;1.45;;
41921;SDS011;27609;51.002;5.354;2022-09-09T17:17:35;2.05;;;1.00;;